Time;durP1;ratioP1;P1;durP2;ratioP2;P2;SDS_P1;SDS_P2;PMS_P1;PMS_P2;Temp;Humidity;BMP_temperature;BMP_pressure;BME280_temperature;BME280_humidity;BME280_pressure;Samples;Min_cycle;Max_cycle;Signal;HPM_P1;HPM_P2
2022/08/07 00:01:09;;;;;;;9.77;6.07;;;13.50;99.90;;;;;;5013037;28;20443;-63
2022/08/07 00:03:35;;;;;;;8.25;5.53;;;13.50;99.90;;;;;;5012380;28;20029;-62
2022/08/07 00:06:01;;;;;;;9.10;5.93;;;13.50;99.90;;;;;;5017678;28;20038;-60
2022/08/07 00:08:27;;;;;;;6.80;5.10;;;13.50;99.90;;;;;;4998279;28;20496;-61
2022/08/07 00:10:53;;;;;;;6.93;5.47;;;13.50;99.90;;;;;;5014728;28;20033;-64
2022/08/07 00:13:21;;;;;;;9.02;5.43;;;13.50;99.90;;;;;;5021161;28;20033;-64
2022/08/07 00:15:47;;;;;;;7.68;5.88;;;13.60;99.90;;;;;;5013498;28;20049;-63
2022/08/07 00:18:14;;;;;;;7.78;5.45;;;13.60;99.90;;;;;;5015941;28;20084;-62
2022/08/07 00:20:40;;;;;;;9.93;5.72;;;13.60;99.90;;;;;;5012288;28;21419;-62
2022/08/07 00:23:06;;;;;;;7.20;4.85;;;13.50;99.90;;;;;;5011773;28;20041;-63
2022/08/07 00:25:32;;;;;;;8.68;5.80;;;13.50;99.90;;;;;;5020222;28;20484;-62
2022/08/07 00:27:58;;;;;;;7.45;5.15;;;13.50;99.90;;;;;;5012292;28;20124;-60
2022/08/07 00:30:24;;;;;;;7.13;5.20;;;13.50;99.90;;;;;;5017713;28;20044;-63
2022/08/07 00:32:50;;;;;;;8.63;5.63;;;13.50;99.90;;;;;;5010512;28;20056;-63
2022/08/07 00:35:20;;;;;;;7.85;5.40;;;13.50;99.90;;;;;;5017450;28;20038;-61
2022/08/07 00:37:46;;;;;;;8.93;6.55;;;13.40;99.90;;;;;;5011902;28;20046;-60
2022/08/07 00:40:14;;;;;;;8.73;6.88;;;13.40;99.90;;;;;;5017815;28;20033;-60
2022/08/07 00:42:40;;;;;;;13.32;8.00;;;13.40;99.90;;;;;;5017309;28;20041;-63
2022/08/07 00:45:07;;;;;;;11.95;8.80;;;13.30;99.90;;;;;;5016268;28;20512;-64
2022/08/07 00:47:33;;;;;;;8.13;6.15;;;13.30;99.90;;;;;;5017435;28;20519;-62
2022/08/07 00:50:00;;;;;;;12.02;8.45;;;13.30;99.90;;;;;;5019660;28;20206;-63
2022/08/07 00:52:25;;;;;;;11.25;7.15;;;13.30;99.90;;;;;;5009132;28;20065;-63
2022/08/07 00:54:51;;;;;;;9.27;7.35;;;13.20;99.90;;;;;;5012966;28;20150;-63
2022/08/07 00:57:17;;;;;;;12.25;7.65;;;13.20;99.90;;;;;;5012035;28;20057;-63
2022/08/07 00:59:43;;;;;;;9.63;6.95;;;13.20;99.90;;;;;;5018908;28;20520;-62
2022/08/07 01:02:10;;;;;;;15.40;7.10;;;13.20;99.90;;;;;;5021202;28;20032;-63
2022/08/07 01:04:37;;;;;;;13.05;8.15;;;13.10;99.90;;;;;;5015651;28;20053;-63
2022/08/07 01:07:03;;;;;;;11.15;8.38;;;13.10;99.90;;;;;;5021301;28;20081;-63
2022/08/07 01:09:29;;;;;;;11.52;8.15;;;13.10;99.90;;;;;;5015203;28;20030;-64
2022/08/07 01:11:55;;;;;;;10.15;7.65;;;13.00;99.90;;;;;;5014457;28;20042;-64
2022/08/07 01:14:22;;;;;;;9.60;7.68;;;13.00;99.90;;;;;;5017330;28;20152;-63
2022/08/07 01:16:49;;;;;;;8.43;6.75;;;13.00;99.90;;;;;;5018651;28;20124;-60
2022/08/07 01:19:17;;;;;;;9.60;6.65;;;13.00;99.90;;;;;;5014381;28;20613;-63
2022/08/07 01:21:43;;;;;;;10.13;6.45;;;12.90;99.90;;;;;;5012508;28;20054;-62
2022/08/07 01:24:10;;;;;;;7.65;6.35;;;12.90;99.90;;;;;;5012748;28;20042;-63
2022/08/07 01:26:36;;;;;;;11.45;6.35;;;12.90;99.90;;;;;;5017802;28;20078;-62
2022/08/07 01:29:03;;;;;;;8.57;6.22;;;12.80;99.90;;;;;;5017398;28;20766;-63
2022/08/07 01:31:32;;;;;;;10.02;6.97;;;12.80;99.90;;;;;;5023900;28;20473;-64
2022/08/07 01:33:59;;;;;;;10.57;7.47;;;12.90;99.90;;;;;;5013015;28;20049;-62
2022/08/07 01:36:26;;;;;;;9.82;7.43;;;12.80;99.90;;;;;;5018487;28;20595;-62
2022/08/07 01:38:52;;;;;;;10.35;6.93;;;12.80;99.90;;;;;;5015523;28;20034;-63
2022/08/07 01:41:19;;;;;;;8.77;6.68;;;12.80;99.90;;;;;;5017547;28;20113;-59
2022/08/07 01:43:46;;;;;;;9.48;6.97;;;12.70;99.90;;;;;;5010229;28;20045;-61
2022/08/07 01:46:13;;;;;;;8.95;6.40;;;12.70;99.90;;;;;;5015958;28;20041;-63
2022/08/07 01:48:44;;;;;;;8.60;6.45;;;12.60;99.90;;;;;;5013085;28;20710;-64
2022/08/07 01:51:22;;;;;;;8.57;6.72;;;12.60;99.90;;;;;;5011484;28;20033;-64
2022/08/07 01:53:59;;;;;;;10.23;6.85;;;12.60;99.90;;;;;;5017591;28;20699;-63
2022/08/07 01:56:30;;;;;;;9.70;5.85;;;12.60;99.90;;;;;;5012026;28;20242;-61
2022/08/07 01:59:27;;;;;;;6.30;4.55;;;12.50;99.90;;;;;;5013090;28;20130;-62
2022/08/07 02:01:59;;;;;;;7.90;6.60;;;12.50;99.90;;;;;;5014457;28;20045;-63
2022/08/07 02:04:56;;;;;;;9.73;7.85;;;12.50;99.90;;;;;;5014407;28;20125;-61
2022/08/07 02:07:27;;;;;;;8.75;6.43;;;12.50;99.90;;;;;;5011990;28;20534;-63
2022/08/07 02:09:54;;;;;;;7.10;5.47;;;12.50;99.90;;;;;;5012882;28;20535;-62
2022/08/07 02:12:23;;;;;;;9.52;7.60;;;12.50;99.90;;;;;;5012576;28;20139;-62
2022/08/07 02:14:56;;;;;;;8.63;7.05;;;12.50;99.90;;;;;;5016721;28;20041;-63
2022/08/07 02:17:23;;;;;;;8.23;6.25;;;12.50;99.90;;;;;;5016426;28;20211;-59
2022/08/07 02:19:51;;;;;;;10.70;6.45;;;12.50;99.90;;;;;;5017781;28;20042;-60
2022/08/07 02:22:19;;;;;;;9.88;7.10;;;12.50;99.90;;;;;;5029137;28;20033;-61
2022/08/07 02:24:47;;;;;;;10.30;7.72;;;12.40;99.90;;;;;;5014517;28;20041;-61
2022/08/07 02:27:16;;;;;;;8.55;6.68;;;12.40;99.90;;;;;;5013174;28;20123;-64
2022/08/07 02:29:43;;;;;;;8.60;7.03;;;12.40;99.90;;;;;;5009681;28;20053;-63
2022/08/07 02:32:09;;;;;;;10.93;7.47;;;12.40;99.90;;;;;;5031773;22;20050;-52
2022/08/07 02:34:37;;;;;;;9.63;7.30;;;12.40;99.90;;;;;;5020496;28;20403;-54
2022/08/07 02:37:07;;;;;;;8.82;6.75;;;12.40;99.90;;;;;;5018346;28;20096;-54
2022/08/07 02:39:37;;;;;;;9.68;7.10;;;12.40;99.90;;;;;;5028442;28;20080;-53
2022/08/07 02:42:03;;;;;;;10.88;8.50;;;12.30;99.90;;;;;;5005190;28;20037;-50
2022/08/07 02:44:29;;;;;;;9.35;7.00;;;12.30;99.90;;;;;;5003732;28;20045;-53
2022/08/07 02:46:56;;;;;;;8.90;7.28;;;12.30;99.90;;;;;;5029105;28;20046;-53
2022/08/07 02:49:23;;;;;;;6.97;5.47;;;12.30;99.90;;;;;;5006326;28;20389;-53
2022/08/07 02:51:50;;;;;;;9.07;7.25;;;12.40;99.90;;;;;;4988350;28;20516;-53
2022/08/07 02:54:18;;;;;;;8.82;6.75;;;12.30;99.90;;;;;;5006842;28;20042;-52
2022/08/07 02:56:46;;;;;;;11.15;7.50;;;12.40;99.90;;;;;;5010805;28;20039;-54
2022/08/07 02:59:15;;;;;;;8.82;7.20;;;12.50;99.90;;;;;;5006612;28;20042;-52
2022/08/07 03:01:43;;;;;;;8.90;6.88;;;12.40;99.90;;;;;;5006191;28;20076;-53
2022/08/07 03:04:14;;;;;;;9.88;6.60;;;12.40;99.90;;;;;;4986799;28;20498;-50
2022/08/07 03:06:42;;;;;;;9.45;5.95;;;12.40;99.90;;;;;;5009714;28;20069;-55
2022/08/07 03:09:08;;;;;;;8.88;6.30;;;12.30;99.90;;;;;;5027880;28;20038;-52
2022/08/07 03:11:36;;;;;;;10.00;6.53;;;12.30;99.90;;;;;;5002092;28;20296;-52
2022/08/07 03:14:04;;;;;;;7.75;5.63;;;12.30;99.90;;;;;;5005520;28;20046;-50
2022/08/07 03:16:31;;;;;;;6.88;5.45;;;12.70;99.90;;;;;;4991526;28;20033;-53
2022/08/07 03:19:00;;;;;;;9.27;6.75;;;12.30;99.90;;;;;;5007204;28;20045;-53
2022/08/07 03:21:27;;;;;;;9.82;7.32;;;12.30;99.90;;;;;;5024123;28;20164;-53
2022/08/07 03:23:55;;;;;;;9.50;6.88;;;12.30;99.90;;;;;;5021237;28;20103;-52
2022/08/07 03:26:24;;;;;;;9.40;6.85;;;12.20;99.90;;;;;;5007949;28;20065;-52
2022/08/07 03:28:50;;;;;;;11.68;6.97;;;12.20;99.90;;;;;;5010050;28;20045;-52
2022/08/07 03:31:19;;;;;;;9.32;6.40;;;12.20;99.90;;;;;;5005388;28;20192;-51
2022/08/07 03:33:59;;;;;;;9.48;7.53;;;12.10;99.90;;;;;;5007796;28;20133;-53
2022/08/07 03:36:26;;;;;;;7.30;5.75;;;12.10;99.90;;;;;;5002032;28;20042;-55
2022/08/07 03:38:57;;;;;;;9.32;6.50;;;12.10;99.90;;;;;;5014288;28;20131;-52
2022/08/07 03:41:24;;;;;;;9.80;7.18;;;12.20;99.90;;;;;;5018283;28;20058;-56
2022/08/07 03:43:50;;;;;;;9.40;6.85;;;12.20;99.90;;;;;;5010656;28;20042;-49
2022/08/07 03:46:16;;;;;;;9.05;6.85;;;12.20;99.90;;;;;;5010813;28;20092;-50
2022/08/07 03:48:42;;;;;;;10.15;6.72;;;12.10;99.90;;;;;;5008992;28;20037;-53
2022/08/07 03:51:10;;;;;;;8.43;6.22;;;12.00;99.90;;;;;;4978787;28;20128;-55
2022/08/07 03:53:37;;;;;;;7.50;5.75;;;12.00;99.90;;;;;;5012460;28;20045;-52
2022/08/07 03:56:04;;;;;;;10.18;7.90;;;12.00;99.90;;;;;;5010165;28;20072;-55
2022/08/07 03:58:31;;;;;;;8.52;5.22;;;12.00;99.90;;;;;;4988832;28;21508;-51
2022/08/07 04:00:58;;;;;;;9.27;5.97;;;11.90;99.90;;;;;;5013379;28;20034;-52
2022/08/07 04:03:23;;;;;;;8.07;5.65;;;12.00;99.90;;;;;;5006008;28;20164;-57
2022/08/07 04:05:49;;;;;;;8.18;6.30;;;12.00;99.90;;;;;;5006535;28;20033;-56
2022/08/07 04:08:15;;;;;;;9.63;7.25;;;11.90;99.90;;;;;;5008223;28;20496;-54
2022/08/07 04:10:42;;;;;;;10.57;7.43;;;11.90;99.90;;;;;;4990023;28;20050;-50
2022/08/07 04:13:12;;;;;;;8.43;6.30;;;11.90;99.90;;;;;;5005252;28;20632;-55
2022/08/07 04:15:37;;;;;;;9.43;7.53;;;12.00;99.90;;;;;;4988380;28;20375;-54
2022/08/07 04:18:03;;;;;;;7.97;6.60;;;12.00;99.90;;;;;;5027637;28;20100;-52
2022/08/07 04:20:29;;;;;;;9.38;6.97;;;11.90;99.90;;;;;;5009053;28;20045;-56
2022/08/07 04:22:57;;;;;;;7.97;7.18;;;12.00;99.90;;;;;;5006992;28;20484;-52
2022/08/07 04:25:24;;;;;;;10.07;7.60;;;12.00;99.90;;;;;;5022944;28;20053;-54
2022/08/07 04:27:50;;;;;;;11.70;7.97;;;12.00;99.90;;;;;;5003936;28;20124;-52
2022/08/07 04:30:16;;;;;;;8.35;6.15;;;11.90;99.90;;;;;;5007018;28;20037;-53
2022/08/07 04:32:42;;;;;;;11.35;8.13;;;11.90;99.90;;;;;;5006298;28;20048;-49
2022/08/07 04:35:08;;;;;;;8.40;6.85;;;11.90;99.90;;;;;;5010303;28;20071;-51
2022/08/07 04:37:35;;;;;;;7.90;5.68;;;11.90;99.90;;;;;;5011871;28;20503;-50
2022/08/07 04:40:02;;;;;;;7.72;6.18;;;11.90;99.90;;;;;;5006203;28;20384;-55
2022/08/07 04:42:30;;;;;;;9.45;7.60;;;12.00;99.90;;;;;;5021601;28;20046;-54
2022/08/07 04:44:59;;;;;;;11.20;7.70;;;12.00;99.90;;;;;;5009647;28;20037;-55
2022/08/07 04:47:30;;;;;;;10.35;7.75;;;12.00;99.90;;;;;;5003839;28;20037;-54
2022/08/07 04:50:10;;;;;;;11.50;7.70;;;12.10;99.90;;;;;;5013290;28;20047;-52
2022/08/07 04:52:49;;;;;;;12.55;7.50;;;12.10;99.90;;;;;;5005679;28;20435;-54
2022/08/07 04:55:29;;;;;;;10.52;7.60;;;12.10;99.90;;;;;;5010124;28;20045;-53
2022/08/07 04:58:12;;;;;;;9.13;7.40;;;12.10;99.90;;;;;;5010542;28;20045;-48
2022/08/07 05:01:13;;;;;;;7.88;6.32;;;12.10;99.90;;;;;;5009240;28;20040;-54
2022/08/07 05:04:07;;;;;;;10.75;7.75;;;12.20;99.90;;;;;;5002989;28;20437;-53
2022/08/07 05:06:41;;;;;;;;;;;12.20;99.90;;;;;;5014134;28;22257;-51
2022/08/07 05:09:09;;;;;;;9.75;7.32;;;12.30;99.90;;;;;;4995000;28;19948;-54
2022/08/07 05:11:42;;;;;;;10.55;8.20;;;12.30;99.90;;;;;;5007975;28;20039;-51
2022/08/07 05:14:12;;;;;;;11.15;7.15;;;12.30;99.90;;;;;;5013476;28;20037;-54
2022/08/07 05:16:41;;;;;;;9.13;6.53;;;12.40;99.90;;;;;;5023953;28;20512;-54
2022/08/07 05:19:11;;;;;;;11.45;7.07;;;12.50;99.90;;;;;;5003393;28;20484;-54
2022/08/07 05:21:38;;;;;;;11.07;7.72;;;12.60;99.90;;;;;;5033292;28;20048;-51
2022/08/07 05:24:10;;;;;;;9.27;6.13;;;12.60;99.90;;;;;;4994970;28;20034;-54
2022/08/07 05:26:38;;;;;;;14.77;7.45;;;12.70;99.90;;;;;;5004343;28;20041;-53
2022/08/07 05:29:07;;;;;;;10.02;7.45;;;12.80;99.90;;;;;;5013818;28;20036;-52
2022/08/07 05:31:38;;;;;;;8.65;6.75;;;12.90;99.90;;;;;;5002419;28;21627;-55
2022/08/07 05:34:10;;;;;;;10.65;7.90;;;13.50;99.90;;;;;;5005375;28;20061;-54
2022/08/07 05:36:51;;;;;;;9.63;6.65;;;13.00;99.90;;;;;;5010928;28;20038;-51
2022/08/07 05:39:19;;;;;;;9.98;7.20;;;13.10;99.90;;;;;;5002945;28;20424;-56
2022/08/07 05:41:47;;;;;;;9.20;6.35;;;13.20;99.90;;;;;;5018865;28;20463;-50
2022/08/07 05:44:20;;;;;;;13.70;6.78;;;13.30;99.90;;;;;;5009646;28;20042;-53
2022/08/07 05:46:50;;;;;;;9.20;6.30;;;13.40;99.90;;;;;;5012692;28;20033;-54
2022/08/07 05:49:16;;;;;;;9.45;6.53;;;13.50;99.90;;;;;;5003963;28;20033;-56
2022/08/07 05:51:43;;;;;;;8.48;5.78;;;13.60;99.90;;;;;;4990085;28;20042;-52
2022/08/07 05:54:13;;;;;;;11.00;6.43;;;13.70;99.90;;;;;;5012888;28;20045;-53
2022/08/07 05:56:40;;;;;;;10.43;6.35;;;13.80;99.90;;;;;;5004143;28;20045;-54
2022/08/07 05:59:12;;;;;;;8.45;5.43;;;13.90;99.90;;;;;;5007740;28;20080;-54
2022/08/07 06:01:39;;;;;;;9.23;6.13;;;14.00;99.90;;;;;;5008775;28;20052;-57
2022/08/07 06:04:07;;;;;;;8.50;5.60;;;14.10;99.90;;;;;;5004360;28;20063;-55
2022/08/07 06:06:33;;;;;;;6.70;5.28;;;14.20;99.90;;;;;;5027078;28;20116;-52
2022/08/07 06:09:00;;;;;;;8.60;6.18;;;14.30;99.90;;;;;;5002106;28;20150;-55
2022/08/07 06:11:29;;;;;;;8.23;6.22;;;14.40;99.90;;;;;;4993056;28;20523;-57
2022/08/07 06:13:55;;;;;;;8.30;5.40;;;14.50;99.90;;;;;;5013799;28;20045;-53
2022/08/07 06:16:25;;;;;;;9.13;6.20;;;14.60;99.90;;;;;;5009456;28;20098;-54
2022/08/07 06:18:52;;;;;;;7.38;5.38;;;14.70;99.90;;;;;;5027818;28;20430;-51
2022/08/07 06:21:18;;;;;;;7.10;5.25;;;14.90;99.90;;;;;;5001853;28;20260;-56
2022/08/07 06:23:44;;;;;;;6.63;4.70;;;15.00;99.90;;;;;;5008393;28;20056;-52
2022/08/07 06:26:12;;;;;;;9.68;5.35;;;15.10;99.90;;;;;;5006887;28;20046;-56
2022/08/07 06:28:52;;;;;;;6.63;4.65;;;15.20;99.90;;;;;;5006813;28;20066;-52
2022/08/07 06:31:19;;;;;;;7.22;5.35;;;15.30;99.90;;;;;;5021574;28;20049;-53
2022/08/07 06:33:46;;;;;;;8.60;5.57;;;15.40;99.90;;;;;;5002541;28;20072;-54
2022/08/07 06:36:11;;;;;;;7.15;5.45;;;15.50;99.90;;;;;;5011429;28;20664;-50
2022/08/07 06:38:38;;;;;;;11.73;5.85;;;15.50;99.90;;;;;;4981107;28;20041;-56
2022/08/07 06:41:11;;;;;;;7.88;5.68;;;15.60;99.90;;;;;;5002833;28;20556;-55
2022/08/07 06:43:38;;;;;;;8.50;5.57;;;15.70;99.90;;;;;;5020789;28;20648;-56
2022/08/07 06:46:04;;;;;;;8.73;5.15;;;15.80;99.90;;;;;;5028401;28;20116;-55
2022/08/07 06:48:30;;;;;;;6.80;5.32;;;15.90;99.90;;;;;;5010833;28;20745;-55
2022/08/07 06:51:04;;;;;;;8.43;5.40;;;16.00;99.90;;;;;;4996960;28;20041;-55
2022/08/07 06:53:32;;;;;;;9.05;5.00;;;16.10;99.90;;;;;;4997960;28;20099;-53
2022/08/07 06:56:16;;;;;;;6.97;4.82;;;16.20;99.90;;;;;;4994492;28;20069;-53
2022/08/07 06:58:44;;;;;;;8.93;4.68;;;16.30;99.90;;;;;;4977151;28;21351;-55
2022/08/07 07:01:12;;;;;;;7.03;4.50;;;16.40;99.90;;;;;;5012067;28;20046;-57
2022/08/07 07:03:41;;;;;;;5.68;4.03;;;16.50;99.90;;;;;;5019583;28;20123;-55
2022/08/07 07:06:08;;;;;;;7.70;5.07;;;16.60;99.90;;;;;;5022726;28;20116;-55
2022/08/07 07:08:34;;;;;;;6.78;4.45;;;16.60;99.90;;;;;;5013663;28;20056;-55
2022/08/07 07:11:05;;;;;;;6.40;4.45;;;16.80;99.90;;;;;;5000392;28;20037;-54
2022/08/07 07:13:39;;;;;;;6.05;4.05;;;16.90;99.90;;;;;;5019043;28;20123;-56
2022/08/07 07:16:16;;;;;;;6.28;4.35;;;17.00;99.90;;;;;;5007643;28;20045;-51
2022/08/07 07:18:58;;;;;;;6.45;3.78;;;17.10;99.90;;;;;;5011504;28;20057;-54
2022/08/07 07:21:31;;;;;;;5.60;3.70;;;17.20;99.90;;;;;;5005347;28;20041;-57
2022/08/07 07:23:58;;;;;;;6.38;4.25;;;17.30;99.90;;;;;;5003062;28;20041;-53
2022/08/07 07:26:26;;;;;;;5.97;4.28;;;17.40;99.90;;;;;;5007317;28;20037;-52
2022/08/07 07:28:58;;;;;;;4.75;3.25;;;17.50;99.90;;;;;;5001383;28;20045;-54
2022/08/07 07:31:34;;;;;;;17.52;4.28;;;17.50;99.90;;;;;;5007901;28;20041;-53
2022/08/07 07:34:07;;;;;;;6.95;3.78;;;17.60;99.90;;;;;;5001036;28;20049;-55
2022/08/07 07:36:34;;;;;;;6.38;4.00;;;17.70;99.90;;;;;;5003330;28;20045;-56
2022/08/07 07:39:02;;;;;;;4.55;3.85;;;17.70;99.90;;;;;;5004239;28;20756;-52
2022/08/07 07:41:29;;;;;;;5.82;4.28;;;17.80;99.90;;;;;;5007169;28;20045;-57
2022/08/07 07:43:57;;;;;;;6.13;4.00;;;18.00;99.90;;;;;;5012338;28;20077;-57
2022/08/07 07:46:25;;;;;;;7.15;4.40;;;18.10;99.90;;;;;;5010255;28;20093;-56
2022/08/07 07:48:51;;;;;;;7.15;3.83;;;18.20;99.90;;;;;;4992863;28;20445;-51
2022/08/07 07:51:20;;;;;;;7.00;4.80;;;18.30;99.90;;;;;;5010825;28;20034;-55
2022/08/07 07:53:47;;;;;;;9.60;5.38;;;18.40;99.90;;;;;;5006839;28;20037;-54
2022/08/07 07:56:15;;;;;;;6.85;4.10;;;18.40;99.90;;;;;;5023330;28;20128;-53
2022/08/07 07:58:42;;;;;;;8.63;5.10;;;18.50;99.90;;;;;;4985949;28;20112;-55
2022/08/07 08:01:09;;;;;;;5.85;4.13;;;18.60;99.90;;;;;;5000449;28;20051;-55
2022/08/07 08:03:37;;;;;;;6.50;4.57;;;18.70;99.90;;;;;;5003945;28;20127;-52
2022/08/07 08:06:05;;;;;;;6.00;3.40;;;18.70;99.90;;;;;;5008147;28;20456;-53
2022/08/07 08:08:32;;;;;;;5.70;4.18;;;18.80;99.90;;;;;;5001351;28;20038;-53
2022/08/07 08:11:06;;;;;;;9.10;4.20;;;18.80;99.90;;;;;;5002289;28;20657;-56
2022/08/07 08:13:34;;;;;;;5.18;4.05;;;18.90;99.90;;;;;;5005201;28;20046;-54
2022/08/07 08:16:02;;;;;;;5.07;4.07;;;19.00;99.90;;;;;;5000766;28;20522;-53
2022/08/07 08:18:31;;;;;;;5.43;3.50;;;19.10;99.90;;;;;;5000512;28;20392;-55
2022/08/07 08:21:01;;;;;;;4.85;3.90;;;19.10;99.90;;;;;;5002917;28;20045;-53
2022/08/07 08:29:04;;;;;;;6.93;3.60;;;19.40;99.90;;;;;;5010436;28;20136;-55
2022/08/07 08:31:35;;;;;;;6.05;4.32;;;19.50;99.90;;;;;;5009179;28;20056;-53
2022/08/07 08:34:04;;;;;;;9.20;4.55;;;19.60;99.90;;;;;;5035913;22;20060;-56
2022/08/07 08:36:32;;;;;;;9.60;4.60;;;19.60;99.60;;;;;;5025041;28;20549;-54
2022/08/07 08:39:00;;;;;;;6.18;4.00;;;19.70;99.90;;;;;;5029299;28;20681;-56
2022/08/07 08:41:47;;;;;;;6.70;4.05;;;19.80;99.40;;;;;;4993470;28;20090;-58
2022/08/07 08:44:31;;;;;;;9.88;4.45;;;19.50;99.20;;;;;;5011216;28;20041;-58
2022/08/07 08:47:32;;;;;;;5.57;4.25;;;19.20;99.20;;;;;;5015462;28;20041;-58
2022/08/07 08:50:27;;;;;;;7.70;3.72;;;19.30;99.90;;;;;;5014526;28;20048;-59
2022/08/07 08:53:03;;;;;;;7.00;5.00;;;19.60;99.90;;;;;;5014649;28;20046;-58
2022/08/07 08:55:40;;;;;;;5.70;3.63;;;19.90;99.60;;;;;;5019611;28;20119;-58
2022/08/07 08:58:24;;;;;;;6.15;4.20;;;20.20;99.70;;;;;;5019344;28;20136;-57
2022/08/07 09:00:55;;;;;;;7.78;4.65;;;20.50;99.20;;;;;;5014433;28;20508;-58
2022/08/07 09:03:33;;;;;;;6.05;3.80;;;20.60;98.80;;;;;;5009434;28;20045;-58
2022/08/07 09:06:20;;;;;;;5.10;3.28;;;20.80;98.80;;;;;;5000541;28;20056;-57
2022/08/07 09:08:46;;;;;;;6.13;3.72;;;21.00;98.60;;;;;;5012805;28;20447;-59
2022/08/07 09:11:26;;;;;;;6.30;3.33;;;21.20;97.90;;;;;;5019557;28;20034;-58
2022/08/07 09:14:11;;;;;;;4.55;3.85;;;21.20;98.10;;;;;;5023380;28;20107;-58
2022/08/07 09:17:03;;;;;;;6.10;3.03;;;21.20;97.80;;;;;;5012254;28;20536;-61
2022/08/07 09:20:04;;;;;;;4.60;3.60;;;21.30;97.50;;;;;;5027061;28;20042;-58
2022/08/07 09:23:05;;;;;;;3.80;3.22;;;21.40;97.30;;;;;;5016654;28;20038;-59
2022/08/07 09:25:57;;;;;;;4.93;3.38;;;21.60;97.30;;;;;;5017789;28;20034;-58
2022/08/07 09:28:30;;;;;;;3.72;3.10;;;21.30;95.20;;;;;;5018682;28;20063;-57
2022/08/07 09:31:06;;;;;;;4.95;3.10;;;20.80;97.00;;;;;;5011581;28;20077;-55
2022/08/07 09:33:45;;;;;;;6.13;3.65;;;20.90;96.80;;;;;;5052900;22;20099;-58
2022/08/07 09:36:17;;;;;;;4.53;3.53;;;21.10;97.10;;;;;;5038019;28;20486;-58
2022/08/07 09:38:57;;;;;;;5.32;2.90;;;21.20;97.00;;;;;;5031688;28;20484;-58
2022/08/07 09:41:34;;;;;;;3.30;2.78;;;21.60;96.70;;;;;;5034127;28;20337;-59
2022/08/07 09:44:12;;;;;;;4.65;2.90;;;21.80;96.60;;;;;;5031466;28;20585;-59
2022/08/07 09:46:46;;;;;;;4.93;3.67;;;22.00;96.30;;;;;;5027472;28;20523;-59
2022/08/07 09:49:52;;;;;;;4.63;3.33;;;22.20;96.00;;;;;;5035440;28;20041;-59
2022/08/07 09:52:32;;;;;;;8.27;3.47;;;21.70;94.20;;;;;;5039642;28;20119;-59
2022/08/07 09:55:13;;;;;;;4.97;3.50;;;21.30;94.50;;;;;;5037461;28;20047;-58
2022/08/07 09:58:12;;;;;;;5.03;3.17;;;21.20;95.50;;;;;;5038626;28;20037;-57
2022/08/07 10:01:12;;;;;;;6.10;3.40;;;21.30;95.90;;;;;;5039589;28;20641;-59
2022/08/07 10:03:47;;;;;;;3.90;3.00;;;21.30;95.90;;;;;;5038323;28;20102;-59
2022/08/07 10:06:48;;;;;;;6.90;3.30;;;21.20;95.70;;;;;;5040241;28;20076;-59
2022/08/07 10:09:28;;;;;;;4.45;3.80;;;21.10;95.90;;;;;;5037716;28;20055;-59
2022/08/07 10:12:14;;;;;;;5.25;3.25;;;21.20;95.80;;;;;;5037961;28;20052;-59
2022/08/07 10:15:18;;;;;;;4.40;3.08;;;21.20;95.60;;;;;;5034155;28;20070;-58
2022/08/07 10:18:08;;;;;;;6.10;3.40;;;21.10;94.60;;;;;;5032477;28;20523;-58
2022/08/07 10:20:46;;;;;;;5.70;2.90;;;21.30;95.10;;;;;;5033376;28;20048;-57
2022/08/07 10:23:30;;;;;;;4.35;3.38;;;21.40;95.00;;;;;;5037806;28;20069;-58
2022/08/07 10:26:34;;;;;;;4.93;3.40;;;21.50;94.40;;;;;;5035902;28;20525;-58
2022/08/07 10:28:59;;;;;;;5.57;3.60;;;21.40;95.30;;;;;;5034658;28;20041;-57
2022/08/07 10:31:45;;;;;;;5.97;3.35;;;21.00;95.00;;;;;;5026626;28;20045;-58
2022/08/07 10:34:26;;;;;;;4.75;2.92;;;20.70;95.30;;;;;;5014904;28;20128;-58
2022/08/07 10:37:26;;;;;;;4.75;3.72;;;20.50;96.30;;;;;;5039074;28;20201;-58
2022/08/07 10:40:16;;;;;;;7.90;3.55;;;20.50;96.30;;;;;;5035567;28;20048;-58
2022/08/07 10:43:11;;;;;;;4.93;3.05;;;20.70;96.20;;;;;;5033223;28;20045;-56
2022/08/07 10:45:38;;;;;;;4.30;2.65;;;20.70;94.90;;;;;;5041420;28;20123;-56
2022/08/07 10:48:16;;;;;;;5.03;2.90;;;20.90;95.80;;;;;;5035062;28;20052;-57
2022/08/07 10:50:49;;;;;;;5.38;3.30;;;21.10;95.80;;;;;;5032877;28;20045;-58
2022/08/07 10:53:38;;;;;;;5.28;3.17;;;21.60;95.90;;;;;;5039364;28;20045;-55
2022/08/07 10:56:09;;;;;;;5.40;2.70;;;22.10;95.60;;;;;;5038255;28;20094;-59
2022/08/07 10:59:06;;;;;;;4.97;2.80;;;22.60;94.80;;;;;;5037665;28;20084;-57
2022/08/07 11:01:35;;;;;;;6.85;2.53;;;22.50;93.80;;;;;;5033225;28;20076;-58
2022/08/07 11:04:14;;;;;;;8.25;3.05;;;22.40;93.80;;;;;;5036781;28;20119;-58
2022/08/07 11:07:14;;;;;;;5.57;2.95;;;22.50;93.70;;;;;;5038349;28;20041;-59
2022/08/07 11:09:51;;;;;;;5.32;2.72;;;22.20;93.40;;;;;;5034418;28;20102;-59
2022/08/07 11:12:22;;;;;;;4.15;2.30;;;22.10;93.50;;;;;;5037775;28;20411;-54
2022/08/07 11:14:56;;;;;;;4.90;2.83;;;22.20;93.90;;;;;;5036441;28;20127;-58
2022/08/07 11:17:33;;;;;;;6.25;2.80;;;22.10;93.10;;;;;;5034552;28;20041;-58
2022/08/07 11:20:02;;;;;;;4.13;2.85;;;21.80;93.60;;;;;;5042800;28;20475;-57
2022/08/07 11:22:45;;;;;;;5.97;2.55;;;21.70;94.10;;;;;;5036823;28;20037;-58
2022/08/07 11:25:23;;;;;;;3.13;2.08;;;21.60;94.10;;;;;;5030584;28;20239;-57
2022/08/07 11:27:53;;;;;;;4.32;2.42;;;21.90;94.20;;;;;;5028865;28;20065;-57
2022/08/07 11:30:24;;;;;;;5.50;2.88;;;21.90;93.30;;;;;;5037582;28;20445;-57
2022/08/07 11:33:04;;;;;;;4.97;2.33;;;22.20;93.20;;;;;;5035556;28;20057;-59
2022/08/07 11:35:41;;;;;;;4.43;2.35;;;22.40;92.90;;;;;;5034514;28;20065;-58
2022/08/07 11:38:19;;;;;;;4.70;2.10;;;22.80;93.20;;;;;;5035382;28;20045;-57
2022/08/07 11:41:02;;;;;;;3.20;2.45;;;23.30;93.40;;;;;;5037759;28;20061;-58
2022/08/07 11:43:50;;;;;;;4.28;2.40;;;23.40;92.40;;;;;;5034170;28;20049;-54
2022/08/07 11:46:25;;;;;;;4.43;2.30;;;23.20;91.70;;;;;;5033167;28;20080;-58
2022/08/07 11:49:09;;;;;;;5.00;2.15;;;22.60;91.50;;;;;;5039101;28;20195;-58
2022/08/07 11:51:52;;;;;;;4.07;2.00;;;22.40;91.90;;;;;;5037984;28;20149;-57
2022/08/07 11:54:54;;;;;;;3.23;1.90;;;22.10;91.70;;;;;;5032532;28;20045;-56
2022/08/07 11:57:45;;;;;;;4.45;2.10;;;22.30;91.70;;;;;;5032176;28;20052;-58
2022/08/07 12:00:18;;;;;;;4.57;2.03;;;22.60;90.70;;;;;;5020666;28;20148;-58
2022/08/07 12:03:13;;;;;;;2.45;1.83;;;22.70;91.70;;;;;;5038773;28;20045;-57
2022/08/07 12:05:44;;;;;;;4.05;1.90;;;23.10;92.00;;;;;;5034482;28;20119;-58
2022/08/07 12:08:15;;;;;;;3.33;1.75;;;23.30;90.10;;;;;;5041638;28;20124;-58
2022/08/07 12:11:04;;;;;;;6.43;1.75;;;23.50;89.50;;;;;;5045994;28;20173;-59
2022/08/07 12:14:07;;;;;;;4.22;1.83;;;23.50;89.20;;;;;;5018542;28;20197;-59
2022/08/07 12:16:48;;;;;;;2.55;1.23;;;23.70;89.50;;;;;;5039340;28;20053;-59
2022/08/07 12:19:28;;;;;;;6.75;1.30;;;23.90;85.00;;;;;;5021541;28;20040;-59
2022/08/07 12:22:03;;;;;;;5.32;1.60;;;23.90;85.80;;;;;;5041606;28;20037;-59
2022/08/07 12:27:40;;;;;;;4.07;1.40;;;23.90;84.40;;;;;;5030847;28;20068;-59
2022/08/07 12:30:07;;;;;;;1.75;1.00;;;24.10;83.20;;;;;;5032995;28;20036;-59
2022/08/07 12:32:42;;;;;;;4.20;1.50;;;24.30;81.70;;;;;;5030997;28;20131;-59
2022/08/07 12:35:12;;;;;;;2.75;1.40;;;24.20;80.40;;;;;;5015847;28;20171;-60
2022/08/07 12:37:42;;;;;;;3.70;1.27;;;24.20;80.70;;;;;;5057495;28;20044;-60
2022/08/07 12:40:10;;;;;;;3.92;1.50;;;24.30;80.70;;;;;;5021530;28;20052;-60
2022/08/07 12:42:36;;;;;;;2.45;1.33;;;24.40;78.60;;;;;;5031926;28;20044;-60
2022/08/07 12:45:14;;;;;;;3.63;1.60;;;24.50;79.00;;;;;;5032625;28;20052;-60
2022/08/07 12:48:11;;;;;;;3.05;1.52;;;24.80;79.70;;;;;;5044070;28;20041;-59
2022/08/07 12:51:01;;;;;;;3.22;1.60;;;25.10;78.20;;;;;;5039094;28;20045;-57
2022/08/07 12:53:40;;;;;;;2.83;1.48;;;25.40;77.40;;;;;;5037905;28;20188;-59
2022/08/07 12:56:40;;;;;;;1.92;1.13;;;24.90;72.70;;;;;;5035739;28;20025;-59
2022/08/07 12:59:07;;;;;;;3.40;1.40;;;24.80;75.90;;;;;;5042822;28;20076;-58
2022/08/07 13:02:20;;;;;;;2.17;1.45;;;25.20;76.80;;;;;;5040623;28;20036;-56
2022/08/07 13:05:23;;;;;;;2.05;1.55;;;25.40;76.40;;;;;;5038415;28;20723;-58
2022/08/07 13:08:21;;;;;;;3.55;1.73;;;25.10;75.90;;;;;;5041960;28;20040;-60
2022/08/07 13:11:21;;;;;;;2.33;1.55;;;24.90;73.00;;;;;;5038283;28;20040;-59
2022/08/07 13:14:11;;;;;;;2.88;1.60;;;24.50;73.80;;;;;;5043561;28;20036;-60
2022/08/07 13:17:04;;;;;;;3.25;1.67;;;24.30;74.80;;;;;;5038385;28;20037;-59
2022/08/07 13:19:51;;;;;;;5.88;1.98;;;24.10;76.30;;;;;;5036335;28;20302;-59
2022/08/07 13:22:29;;;;;;;4.05;1.88;;;23.70;76.60;;;;;;5039389;28;20040;-56
2022/08/07 13:25:18;;;;;;;4.18;2.20;;;23.50;77.00;;;;;;5022334;28;20389;-57
2022/08/07 13:27:51;;;;;;;3.80;2.30;;;23.50;76.90;;;;;;5039939;28;20087;-59